Terminal Aerodrome Forecast
Issued by NWS

Home | Current Version | Previous Version | Text Only | Print | Product List | Glossary On
Versions: 1 2 3 4 5 6 7 8 9 10 11 12 13 14 15 16 17 18 19
000
FTUS43 KAPX 231700
TAFMBL
TAF
KMBL 231720Z 2318/2418 34012G18KT P6SM SCT021
      TEMPO 2318/2320 BKN021
     FM232000 35011G17KT P6SM SCT025
     FM240100 05003KT P6SM SKC
     FM241500 32007KT P6SM SKC
      AMD LTD TO CLD VIS AND WIND=

USA.gov is the U.S. government's official web portal to all federal, state and local government web resources and services.